createdAt,value
2022-10-11T00:03:43.911Z,51.30
2022-10-11T00:08:47.474Z,51.35
2022-10-11T00:13:51.006Z,51.41
2022-10-11T00:18:57.001Z,51.72
2022-10-11T00:24:00.535Z,52.80
2022-10-11T00:29:04.088Z,52.69
2022-10-11T00:34:09.390Z,53.17
2022-10-11T00:39:14.402Z,52.83
2022-10-11T00:44:20.534Z,53.11
2022-10-11T00:49:34.568Z,54.82
2022-10-11T00:54:46.893Z,55.42
2022-10-11T00:59:53.090Z,55.44
2022-10-11T01:05:25.348Z,58.44
2022-10-11T01:10:22.553Z,58.89
2022-10-11T01:15:33.964Z,59.23
2022-10-11T01:20:53.360Z,60.59
2022-10-11T01:26:18.448Z,61.63
2022-10-11T01:31:28.432Z,59.88
2022-10-11T01:36:37.539Z,59.02
2022-10-11T01:41:46.799Z,58.72
2022-10-11T01:46:52.929Z,58.63
2022-10-11T01:52:00.526Z,58.51
2022-10-11T01:57:46.426Z,60.09
2022-10-11T02:03:02.071Z,62.45
2022-10-11T02:08:14.879Z,62.97
2022-10-11T02:13:24.755Z,63.50
2022-10-11T02:18:34.921Z,63.79
2022-10-11T02:23:43.233Z,63.77
2022-10-11T02:28:48.820Z,64.29
2022-10-11T02:33:59.006Z,65.07
2022-10-11T02:39:08.633Z,65.91
2022-10-11T02:44:16.895Z,64.02
2022-10-11T02:49:22.682Z,62.95
2022-10-11T02:54:27.344Z,63.38
2022-10-11T02:59:30.882Z,62.85
2022-10-11T03:04:37.012Z,63.65
2022-10-11T03:09:40.539Z,63.76
2022-10-11T03:14:44.089Z,63.52
2022-10-11T03:19:49.318Z,63.10
2022-10-11T03:24:52.868Z,63.18
2022-10-11T03:29:56.420Z,63.17
2022-10-11T03:35:02.536Z,62.98
2022-10-11T03:40:07.636Z,62.90
2022-10-11T03:45:11.828Z,64.00
2022-10-11T03:50:17.453Z,63.40
2022-10-11T03:55:24.533Z,63.97
2022-10-11T04:00:28.310Z,63.50
2022-10-11T04:05:33.555Z,63.63
2022-10-11T04:10:37.079Z,63.76
2022-10-11T04:15:40.812Z,62.89
2022-10-11T04:20:46.901Z,62.77
2022-10-11T04:25:50.398Z,63.30
2022-10-11T04:30:53.939Z,63.06
2022-10-11T04:35:59.100Z,63.92
2022-10-11T04:41:08.119Z,65.62
2022-10-11T04:46:11.846Z,66.35
2022-10-11T04:51:17.423Z,67.01
2022-10-11T04:56:21.112Z,67.32
2022-10-11T05:01:24.634Z,67.67
2022-10-11T05:06:30.146Z,68.06
2022-10-11T05:11:33.703Z,68.29
2022-10-11T05:16:37.306Z,68.47
2022-10-11T05:21:42.460Z,68.90
2022-10-11T05:26:46.664Z,69.09
2022-10-11T05:31:50.211Z,69.46
2022-10-11T05:36:55.395Z,70.16
2022-10-11T05:41:58.928Z,69.71
2022-10-11T05:47:02.461Z,69.98
2022-10-11T05:52:08.641Z,71.07
2022-10-11T05:57:12.941Z,70.84
2022-10-11T06:02:16.496Z,70.60
2022-10-11T06:07:21.664Z,71.05
2022-10-11T06:12:25.191Z,71.78
2022-10-11T06:17:28.828Z,71.33
2022-10-11T06:22:34.940Z,72.17
2022-10-11T06:27:38.493Z,72.32
2022-10-11T06:32:42.051Z,71.71
2022-10-11T06:37:47.220Z,72.01
2022-10-11T06:42:50.736Z,72.81
2022-10-11T06:47:54.324Z,72.45
2022-10-11T06:52:59.582Z,72.24
2022-10-11T06:58:03.130Z,72.58
2022-10-11T07:03:06.750Z,72.85
2022-10-11T07:08:12.001Z,72.35
2022-10-11T07:13:17.382Z,72.67
2022-10-11T07:18:21.125Z,72.53
2022-10-11T07:23:26.811Z,73.68
2022-10-11T07:28:30.447Z,73.62
2022-10-11T07:33:34.230Z,73.19
2022-10-11T07:38:41.281Z,73.41
2022-10-11T07:43:44.985Z,73.25
2022-10-11T07:48:48.746Z,73.33
2022-10-11T07:53:56.454Z,73.47
2022-10-11T07:59:01.721Z,73.40
2022-10-11T08:04:05.474Z,73.49
2022-10-11T08:09:10.686Z,74.34
2022-10-11T08:14:14.257Z,73.37
2022-10-11T08:19:18.044Z,73.46
2022-10-11T08:24:23.217Z,74.61
2022-10-11T08:29:26.737Z,74.06
2022-10-11T08:34:30.265Z,74.01
2022-10-11T08:39:36.453Z,74.69
2022-10-11T08:45:10.700Z,73.54
2022-10-11T08:50:08.846Z,73.94
2022-10-11T08:55:21.933Z,75.69
2022-10-11T09:00:31.628Z,74.31
2022-10-11T09:05:37.328Z,74.11
2022-10-11T09:10:59.314Z,75.47
2022-10-11T09:16:10.728Z,75.37
2022-10-11T09:21:24.152Z,73.97
2022-10-11T09:26:34.912Z,74.79
2022-10-11T09:31:38.648Z,75.00
2022-10-11T09:36:47.601Z,74.70
2022-10-11T09:41:57.748Z,74.41
2022-10-11T09:47:01.359Z,74.59
2022-10-11T09:52:07.751Z,74.44
2022-10-11T09:57:28.193Z,74.47
2022-10-11T10:02:39.342Z,74.64
2022-10-11T10:08:04.114Z,75.19
2022-10-11T10:13:21.135Z,77.04
2022-10-11T10:18:30.694Z,77.17
2022-10-11T10:23:37.456Z,75.62
2022-10-11T10:29:00.073Z,75.10
2022-10-11T10:34:07.108Z,74.59
2022-10-11T10:39:17.037Z,76.10
2022-10-11T10:44:22.193Z,75.98
2022-10-11T10:55:01.063Z,77.07
2022-10-11T11:00:14.698Z,76.80
2022-10-11T11:05:29.481Z,75.27
2022-10-11T11:10:37.966Z,75.18
2022-10-11T11:15:52.557Z,76.53
2022-10-11T11:21:09.934Z,75.61
2022-10-11T11:26:22.812Z,76.49
2022-10-11T11:32:07.300Z,77.48
2022-10-11T11:37:22.914Z,75.97
2022-10-11T11:42:31.762Z,75.88
2022-10-11T11:47:41.178Z,75.35
2022-10-11T11:52:48.142Z,76.32
2022-10-11T11:58:01.036Z,76.79
2022-10-11T12:03:15.627Z,75.56
2022-10-11T12:08:27.077Z,75.81
2022-10-11T12:13:35.434Z,76.41
2022-10-11T12:18:54.922Z,77.10
2022-10-11T12:24:13.946Z,76.82
2022-10-11T12:29:45.827Z,76.07
2022-10-11T12:34:51.007Z,76.61
2022-10-11T12:39:55.514Z,77.37
2022-10-11T12:45:31.203Z,79.10
2022-10-11T12:50:45.375Z,79.75
2022-10-11T12:55:58.335Z,79.80
2022-10-11T13:01:22.941Z,79.66
2022-10-11T13:06:29.933Z,79.05
2022-10-11T13:11:36.107Z,79.40
2022-10-11T13:16:51.144Z,80.76
2022-10-11T13:21:58.905Z,79.03
2022-10-11T13:27:03.978Z,79.10
2022-10-11T13:32:12.483Z,79.66
2022-10-11T13:37:20.835Z,78.55
2022-10-11T13:42:29.334Z,77.88
2022-10-11T13:47:33.778Z,76.98
2022-10-11T13:52:51.143Z,77.46
2022-10-11T13:57:55.438Z,78.13
2022-10-11T14:03:02.045Z,78.44
2022-10-11T14:08:20.017Z,79.00
2022-10-11T14:13:26.417Z,78.66
2022-10-11T14:18:48.677Z,79.62
2022-10-11T14:23:55.461Z,79.03
2022-10-11T14:29:01.329Z,79.12
2022-10-11T14:34:05.415Z,79.01
2022-10-11T14:39:16.550Z,78.90
2022-10-11T14:44:20.637Z,78.35
2022-10-11T14:49:25.968Z,78.54
2022-10-11T14:54:32.345Z,79.07
2022-10-11T14:59:37.727Z,79.46
2022-10-11T15:04:41.261Z,79.21
2022-10-11T15:09:47.437Z,80.12
2022-10-11T15:14:50.231Z,82.60
2022-10-11T15:19:53.757Z,81.28
2022-10-11T15:24:59.044Z,81.56
2022-10-11T15:30:02.576Z,82.20
2022-10-11T15:35:06.760Z,81.36
2022-10-11T15:40:19.745Z,81.59
2022-10-11T15:45:24.069Z,80.34
2022-10-11T15:50:29.716Z,79.75
2022-10-11T15:55:36.934Z,78.63
2022-10-11T16:00:40.961Z,78.12
2022-10-11T16:05:44.757Z,77.67
2022-10-11T16:10:50.729Z,77.21
2022-10-11T16:15:54.359Z,77.09
2022-10-11T16:20:58.137Z,76.58
2022-10-11T16:26:05.601Z,76.78
2022-10-11T16:31:10.026Z,75.75
2022-10-11T16:36:14.522Z,75.90
2022-10-11T16:41:19.684Z,76.62
2022-10-11T16:46:23.479Z,75.71
2022-10-11T16:51:27.029Z,75.60
2022-10-11T16:56:34.962Z,75.46
2022-10-11T17:01:42.890Z,74.17
2022-10-11T17:06:46.491Z,73.55
2022-10-11T17:11:51.957Z,71.91
2022-10-11T17:16:55.511Z,69.59
2022-10-11T17:21:59.937Z,68.38
2022-10-11T17:27:05.998Z,66.90
2022-10-11T17:32:09.593Z,66.00
2022-10-11T17:37:13.148Z,65.16
2022-10-11T17:42:18.339Z,64.12
2022-10-11T17:47:21.888Z,63.81
2022-10-11T17:52:25.477Z,62.75
2022-10-11T17:57:30.683Z,61.74
2022-10-11T18:02:34.332Z,61.88
2022-10-11T18:07:37.882Z,60.39
2022-10-11T18:12:43.046Z,59.90
2022-10-11T18:17:46.624Z,58.34
2022-10-11T18:22:51.195Z,58.42
2022-10-11T18:27:56.364Z,58.73
2022-10-11T18:32:59.886Z,57.81
2022-10-11T18:38:03.558Z,58.31
2022-10-11T18:43:08.742Z,57.67
2022-10-11T18:48:12.998Z,57.28
2022-10-11T18:53:16.547Z,56.39
2022-10-11T18:58:21.713Z,55.95
2022-10-11T19:03:25.235Z,56.61
2022-10-11T19:08:29.296Z,56.00
2022-10-11T19:13:34.861Z,54.73
2022-10-11T19:18:43.911Z,54.80
2022-10-11T19:23:49.540Z,54.74
2022-10-11T19:28:58.579Z,54.24
2022-10-11T19:34:02.256Z,54.16
2022-10-11T19:39:06.763Z,53.55
2022-10-11T19:44:12.823Z,53.06
2022-10-11T19:49:16.677Z,52.67
2022-10-11T19:54:20.274Z,52.44
2022-10-11T19:59:25.435Z,51.95
2022-10-11T20:09:52.529Z,52.62
2022-10-11T20:14:57.864Z,50.79
2022-10-11T20:20:00.656Z,51.29
2022-10-11T20:25:04.338Z,51.31
2022-10-11T20:30:11.112Z,51.10
2022-10-11T20:35:14.756Z,50.41
2022-10-11T20:40:18.498Z,50.79
2022-10-11T20:45:23.654Z,50.42
2022-10-11T20:50:26.439Z,49.86
2022-10-11T20:55:29.965Z,50.34
2022-10-11T21:00:35.126Z,50.34
2022-10-11T21:05:37.907Z,50.04
2022-10-11T21:10:41.396Z,50.21
2022-10-11T21:15:46.598Z,49.20
2022-10-11T21:20:49.390Z,48.95
2022-10-11T21:25:52.909Z,49.27
2022-10-11T21:31:04.226Z,48.97
2022-10-11T21:36:09.598Z,48.51
2022-10-11T21:41:14.744Z,49.38
2022-10-11T21:46:20.014Z,48.08
2022-10-11T21:51:24.886Z,49.02
2022-10-11T21:56:28.813Z,47.95
2022-10-11T22:01:36.118Z,48.58
2022-10-11T22:06:39.754Z,48.37
2022-10-11T22:11:43.303Z,48.83
2022-10-11T22:16:48.546Z,48.50
2022-10-11T22:21:52.199Z,48.96
2022-10-11T22:26:55.841Z,48.43
2022-10-11T22:32:01.019Z,48.95
2022-10-11T22:37:03.801Z,48.49
2022-10-11T22:42:07.575Z,49.72
2022-10-11T22:47:12.736Z,50.27
2022-10-11T22:52:15.556Z,50.33
2022-10-11T22:57:19.075Z,50.00
2022-10-11T23:02:25.472Z,50.35
2022-10-11T23:07:28.998Z,50.51
2022-10-11T23:12:32.791Z,50.65
2022-10-11T23:17:38.471Z,50.48
2022-10-11T23:22:42.148Z,51.00
2022-10-11T23:27:45.686Z,50.50
2022-10-11T23:32:50.837Z,50.83
2022-10-11T23:37:53.749Z,50.94
2022-10-11T23:42:57.310Z,51.75
2022-10-11T23:48:02.483Z,51.71
2022-10-11T23:53:05.279Z,51.53
2022-10-11T23:58:08.803Z,52.48
